sensor_id;sensor_type;location;lat;lon;timestamp;pressure;altitude;pressure_sealevel;temperature;humidity
72262;BME280;60173;52.112;8.648;2023-11-22T00:00:34;101651.94;;;1.66;100.00
72262;BME280;60173;52.112;8.648;2023-11-22T00:03:00;101660.16;;;1.77;100.00
72262;BME280;60173;52.112;8.648;2023-11-22T00:05:27;101660.56;;;1.68;100.00
72262;BME280;60173;52.112;8.648;2023-11-22T00:07:53;101671.28;;;1.68;100.00
72262;BME280;60173;52.112;8.648;2023-11-22T00:10:20;101676.88;;;1.53;100.00
72262;BME280;60173;52.112;8.648;2023-11-22T00:12:46;101678.13;;;1.57;100.00
72262;BME280;60173;52.112;8.648;2023-11-22T00:15:13;101694.81;;;1.46;100.00
72262;BME280;60173;52.112;8.648;2023-11-22T00:17:39;101687.56;;;1.66;100.00
72262;BME280;60173;52.112;8.648;2023-11-22T00:20:06;101697.69;;;1.57;100.00
72262;BME280;60173;52.112;8.648;2023-11-22T00:22:33;101696.03;;;1.43;100.00
72262;BME280;60173;52.112;8.648;2023-11-22T00:25:03;101698.72;;;1.56;100.00
72262;BME280;60173;52.112;8.648;2023-11-22T00:27:30;101697.06;;;1.62;100.00
72262;BME280;60173;52.112;8.648;2023-11-22T00:29:57;101707.34;;;1.58;100.00
72262;BME280;60173;52.112;8.648;2023-11-22T00:32:24;101705.47;;;1.72;100.00
72262;BME280;60173;52.112;8.648;2023-11-22T00:34:51;101705.38;;;2.12;100.00
72262;BME280;60173;52.112;8.648;2023-11-22T00:37:18;101712.00;;;1.96;100.00
72262;BME280;60173;52.112;8.648;2023-11-22T00:39:44;101707.91;;;1.87;100.00
72262;BME280;60173;52.112;8.648;2023-11-22T00:42:11;101712.25;;;1.81;100.00
72262;BME280;60173;52.112;8.648;2023-11-22T00:44:37;101718.25;;;1.84;100.00
72262;BME280;60173;52.112;8.648;2023-11-22T00:47:04;101711.44;;;1.68;100.00
72262;BME280;60173;52.112;8.648;2023-11-22T00:49:30;101710.22;;;1.64;100.00
72262;BME280;60173;52.112;8.648;2023-11-22T00:51:57;101719.09;;;1.64;100.00
72262;BME280;60173;52.112;8.648;2023-11-22T00:54:26;101721.56;;;1.46;100.00
72262;BME280;60173;52.112;8.648;2023-11-22T00:56:53;101726.50;;;1.49;100.00
72262;BME280;60173;52.112;8.648;2023-11-22T00:59:19;101735.56;;;1.34;100.00
72262;BME280;60173;52.112;8.648;2023-11-22T01:01:46;101737.22;;;1.22;100.00
72262;BME280;60173;52.112;8.648;2023-11-22T01:04:12;101741.34;;;1.31;100.00
72262;BME280;60173;52.112;8.648;2023-11-22T01:06:39;101736.81;;;1.25;100.00
72262;BME280;60173;52.112;8.648;2023-11-22T01:09:05;101743.81;;;1.13;100.00
72262;BME280;60173;52.112;8.648;2023-11-22T01:11:32;101751.78;;;1.00;100.00
72262;BME280;60173;52.112;8.648;2023-11-22T01:13:58;101759.19;;;0.98;100.00
72262;BME280;60173;52.112;8.648;2023-11-22T01:16:25;101748.31;;;0.99;100.00
72262;BME280;60173;52.112;8.648;2023-11-22T01:18:51;101749.13;;;1.00;100.00
72262;BME280;60173;52.112;8.648;2023-11-22T01:21:18;101742.13;;;0.99;100.00
72262;BME280;60173;52.112;8.648;2023-11-22T01:23:45;101739.25;;;1.07;100.00
72262;BME280;60173;52.112;8.648;2023-11-22T01:26:11;101739.88;;;1.09;100.00
72262;BME280;60173;52.112;8.648;2023-11-22T01:28:38;101730.16;;;0.95;100.00
72262;BME280;60173;52.112;8.648;2023-11-22T01:31:05;101733.06;;;1.00;100.00
72262;BME280;60173;52.112;8.648;2023-11-22T01:33:31;101737.19;;;1.09;100.00
72262;BME280;60173;52.112;8.648;2023-11-22T01:35:58;101744.00;;;1.05;100.00
72262;BME280;60173;52.112;8.648;2023-11-22T01:38:24;101736.19;;;1.10;100.00
72262;BME280;60173;52.112;8.648;2023-11-22T01:40:51;101732.44;;;0.98;100.00
72262;BME280;60173;52.112;8.648;2023-11-22T01:43:19;101731.38;;;0.85;100.00
72262;BME280;60173;52.112;8.648;2023-11-22T01:45:45;101723.75;;;0.76;100.00
72262;BME280;60173;52.112;8.648;2023-11-22T01:48:12;101721.91;;;0.70;100.00
72262;BME280;60173;52.112;8.648;2023-11-22T01:50:40;101726.38;;;0.62;100.00
72262;BME280;60173;52.112;8.648;2023-11-22T01:53:12;101730.69;;;0.63;100.00
72262;BME280;60173;52.112;8.648;2023-11-22T01:55:39;101727.59;;;0.53;100.00
72262;BME280;60173;52.112;8.648;2023-11-22T01:58:07;101733.97;;;0.52;100.00
72262;BME280;60173;52.112;8.648;2023-11-22T02:00:48;101739.94;;;0.54;100.00
72262;BME280;60173;52.112;8.648;2023-11-22T02:03:15;101742.75;;;0.39;100.00
72262;BME280;60173;52.112;8.648;2023-11-22T02:05:42;101747.25;;;0.32;100.00
72262;BME280;60173;52.112;8.648;2023-11-22T02:08:09;101756.28;;;0.31;100.00
72262;BME280;60173;52.112;8.648;2023-11-22T02:10:36;101760.38;;;0.27;100.00
72262;BME280;60173;52.112;8.648;2023-11-22T02:13:04;101767.78;;;0.32;100.00
72262;BME280;60173;52.112;8.648;2023-11-22T02:15:31;101768.25;;;0.35;100.00
72262;BME280;60173;52.112;8.648;2023-11-22T02:17:57;101767.41;;;0.35;100.00
72262;BME280;60173;52.112;8.648;2023-11-22T02:20:36;101772.78;;;0.41;100.00
72262;BME280;60173;52.112;8.648;2023-11-22T02:23:10;101781.03;;;0.47;100.00
72262;BME280;60173;52.112;8.648;2023-11-22T02:25:37;101780.66;;;0.50;100.00
72262;BME280;60173;52.112;8.648;2023-11-22T02:28:04;101783.47;;;0.41;100.00
72262;BME280;60173;52.112;8.648;2023-11-22T02:30:30;101785.25;;;0.28;100.00
72262;BME280;60173;52.112;8.648;2023-11-22T02:32:57;101792.50;;;0.40;100.00
72262;BME280;60173;52.112;8.648;2023-11-22T02:35:23;101796.59;;;0.36;100.00
72262;BME280;60173;52.112;8.648;2023-11-22T02:37:50;101795.16;;;0.40;100.00
72262;BME280;60173;52.112;8.648;2023-11-22T02:40:20;101797.25;;;0.38;100.00
72262;BME280;60173;52.112;8.648;2023-11-22T02:42:51;101802.81;;;0.43;100.00
72262;BME280;60173;52.112;8.648;2023-11-22T02:45:25;101795.50;;;0.59;100.00
72262;BME280;60173;52.112;8.648;2023-11-22T02:47:52;101797.13;;;0.60;100.00
72262;BME280;60173;52.112;8.648;2023-11-22T02:50:18;101798.41;;;0.71;100.00
72262;BME280;60173;52.112;8.648;2023-11-22T02:52:45;101796.56;;;0.78;100.00
72262;BME280;60173;52.112;8.648;2023-11-22T02:55:11;101812.84;;;0.76;100.00
72262;BME280;60173;52.112;8.648;2023-11-22T02:57:38;101813.41;;;0.72;100.00
72262;BME280;60173;52.112;8.648;2023-11-22T03:00:05;101811.16;;;0.75;100.00
72262;BME280;60173;52.112;8.648;2023-11-22T03:02:32;101817.56;;;0.74;100.00
72262;BME280;60173;52.112;8.648;2023-11-22T03:04:58;101811.00;;;0.83;100.00
72262;BME280;60173;52.112;8.648;2023-11-22T03:07:26;101827.22;;;0.75;100.00
72262;BME280;60173;52.112;8.648;2023-11-22T03:09:53;101830.81;;;0.54;100.00
72262;BME280;60173;52.112;8.648;2023-11-22T03:12:19;101828.00;;;0.62;100.00
72262;BME280;60173;52.112;8.648;2023-11-22T03:14:46;101834.09;;;0.50;100.00
72262;BME280;60173;52.112;8.648;2023-11-22T03:17:15;101834.56;;;0.60;100.00
72262;BME280;60173;52.112;8.648;2023-11-22T03:19:41;101842.00;;;0.64;100.00
72262;BME280;60173;52.112;8.648;2023-11-22T03:22:08;101848.59;;;0.75;100.00
72262;BME280;60173;52.112;8.648;2023-11-22T03:24:34;101831.31;;;0.71;100.00
72262;BME280;60173;52.112;8.648;2023-11-22T03:27:01;101832.84;;;0.45;100.00
72262;BME280;60173;52.112;8.648;2023-11-22T03:29:28;101829.56;;;0.43;100.00
72262;BME280;60173;52.112;8.648;2023-11-22T03:31:55;101821.81;;;0.62;100.00
72262;BME280;60173;52.112;8.648;2023-11-22T03:34:21;101828.00;;;0.69;100.00
72262;BME280;60173;52.112;8.648;2023-11-22T03:36:48;101833.34;;;0.69;100.00
72262;BME280;60173;52.112;8.648;2023-11-22T03:39:15;101835.75;;;0.51;100.00
72262;BME280;60173;52.112;8.648;2023-11-22T03:41:42;101844.41;;;0.53;100.00
72262;BME280;60173;52.112;8.648;2023-11-22T03:44:09;101847.69;;;0.55;100.00
72262;BME280;60173;52.112;8.648;2023-11-22T03:46:36;101850.16;;;0.50;100.00
72262;BME280;60173;52.112;8.648;2023-11-22T03:49:04;101855.91;;;0.53;100.00
72262;BME280;60173;52.112;8.648;2023-11-22T03:51:30;101855.88;;;0.47;100.00
72262;BME280;60173;52.112;8.648;2023-11-22T03:53:57;101858.78;;;0.52;100.00
72262;BME280;60173;52.112;8.648;2023-11-22T03:56:23;101870.22;;;0.39;100.00
72262;BME280;60173;52.112;8.648;2023-11-22T03:58:50;101872.31;;;0.43;100.00
72262;BME280;60173;52.112;8.648;2023-11-22T04:01:16;101871.66;;;0.35;100.00
72262;BME280;60173;52.112;8.648;2023-11-22T04:03:43;101883.63;;;0.45;100.00
72262;BME280;60173;52.112;8.648;2023-11-22T04:06:09;101891.25;;;0.49;100.00
72262;BME280;60173;52.112;8.648;2023-11-22T04:08:36;101882.91;;;0.30;100.00
72262;BME280;60173;52.112;8.648;2023-11-22T04:11:03;101892.19;;;0.34;100.00
72262;BME280;60173;52.112;8.648;2023-11-22T04:13:29;101893.47;;;0.38;100.00
72262;BME280;60173;52.112;8.648;2023-11-22T04:15:56;101894.72;;;0.42;100.00
72262;BME280;60173;52.112;8.648;2023-11-22T04:18:23;101901.34;;;0.47;100.00
72262;BME280;60173;52.112;8.648;2023-11-22T04:20:49;101884.81;;;0.36;100.00
72262;BME280;60173;52.112;8.648;2023-11-22T04:23:16;101887.06;;;0.39;100.00
72262;BME280;60173;52.112;8.648;2023-11-22T04:25:42;101883.59;;;0.39;100.00
72262;BME280;60173;52.112;8.648;2023-11-22T04:28:09;101886.25;;;0.39;100.00
72262;BME280;60173;52.112;8.648;2023-11-22T04:30:35;101894.03;;;0.34;100.00
72262;BME280;60173;52.112;8.648;2023-11-22T04:33:02;101901.75;;;0.22;100.00
72262;BME280;60173;52.112;8.648;2023-11-22T04:35:28;101900.28;;;0.19;100.00
72262;BME280;60173;52.112;8.648;2023-11-22T04:37:55;101892.38;;;0.33;100.00
72262;BME280;60173;52.112;8.648;2023-11-22T04:40:21;101904.69;;;0.27;100.00
72262;BME280;60173;52.112;8.648;2023-11-22T04:42:48;101900.59;;;0.31;100.00
72262;BME280;60173;52.112;8.648;2023-11-22T04:45:14;101907.91;;;0.22;100.00
72262;BME280;60173;52.112;8.648;2023-11-22T04:47:41;101914.09;;;0.23;100.00
72262;BME280;60173;52.112;8.648;2023-11-22T04:50:08;101900.25;;;0.41;100.00
72262;BME280;60173;52.112;8.648;2023-11-22T04:52:34;101908.00;;;0.29;100.00
72262;BME280;60173;52.112;8.648;2023-11-22T04:55:01;101907.38;;;0.06;100.00
72262;BME280;60173;52.112;8.648;2023-11-22T04:57:27;101911.63;;;0.21;100.00
72262;BME280;60173;52.112;8.648;2023-11-22T04:59:54;101903.66;;;0.28;100.00
72262;BME280;60173;52.112;8.648;2023-11-22T05:02:20;101903.66;;;0.28;100.00
72262;BME280;60173;52.112;8.648;2023-11-22T05:04:47;101903.03;;;0.26;100.00
72262;BME280;60173;52.112;8.648;2023-11-22T05:07:14;101898.63;;;0.12;100.00
72262;BME280;60173;52.112;8.648;2023-11-22T05:09:41;101909.69;;;0.09;100.00
72262;BME280;60173;52.112;8.648;2023-11-22T05:12:08;101911.72;;;-0.15;100.00
72262;BME280;60173;52.112;8.648;2023-11-22T05:14:34;101911.41;;;-0.27;100.00
72262;BME280;60173;52.112;8.648;2023-11-22T05:17:01;101909.09;;;-0.30;100.00
72262;BME280;60173;52.112;8.648;2023-11-22T05:19:27;101917.19;;;-0.44;100.00
72262;BME280;60173;52.112;8.648;2023-11-22T05:21:54;101924.28;;;-0.52;100.00
72262;BME280;60173;52.112;8.648;2023-11-22T05:24:20;101927.41;;;-0.48;100.00
72262;BME280;60173;52.112;8.648;2023-11-22T05:26:46;101943.09;;;-0.60;100.00
72262;BME280;60173;52.112;8.648;2023-11-22T05:29:13;101946.13;;;-0.63;100.00
72262;BME280;60173;52.112;8.648;2023-11-22T05:31:39;101946.50;;;-0.66;100.00
72262;BME280;60173;52.112;8.648;2023-11-22T05:34:06;101943.19;;;-0.68;100.00
72262;BME280;60173;52.112;8.648;2023-11-22T05:36:32;101949.31;;;-0.53;100.00
72262;BME280;60173;52.112;8.648;2023-11-22T05:38:59;101962.22;;;-0.56;100.00
72262;BME280;60173;52.112;8.648;2023-11-22T05:41:26;101955.97;;;-0.63;100.00
72262;BME280;60173;52.112;8.648;2023-11-22T05:43:52;101952.22;;;-0.69;100.00
72262;BME280;60173;52.112;8.648;2023-11-22T05:46:20;101941.72;;;-0.71;100.00
72262;BME280;60173;52.112;8.648;2023-11-22T05:48:53;101937.47;;;-0.65;100.00
72262;BME280;60173;52.112;8.648;2023-11-22T05:51:20;101937.88;;;-0.47;100.00
72262;BME280;60173;52.112;8.648;2023-11-22T05:53:47;101934.72;;;-0.35;100.00
72262;BME280;60173;52.112;8.648;2023-11-22T05:56:13;101935.91;;;-0.38;100.00
72262;BME280;60173;52.112;8.648;2023-11-22T05:58:40;101929.44;;;-0.50;100.00
72262;BME280;60173;52.112;8.648;2023-11-22T06:01:07;101937.78;;;-0.38;100.00
72262;BME280;60173;52.112;8.648;2023-11-22T06:03:35;101941.63;;;-0.62;100.00
72262;BME280;60173;52.112;8.648;2023-11-22T06:06:02;101942.75;;;-0.72;100.00
72262;BME280;60173;52.112;8.648;2023-11-22T06:08:28;101938.78;;;-0.76;100.00
72262;BME280;60173;52.112;8.648;2023-11-22T06:10:55;101945.47;;;-0.65;100.00
72262;BME280;60173;52.112;8.648;2023-11-22T06:13:21;101948.25;;;-0.73;100.00
72262;BME280;60173;52.112;8.648;2023-11-22T06:15:48;101952.41;;;-0.71;100.00
72262;BME280;60173;52.112;8.648;2023-11-22T06:18:14;101940.22;;;-0.58;100.00
72262;BME280;60173;52.112;8.648;2023-11-22T06:20:41;101949.84;;;-0.42;100.00
72262;BME280;60173;52.112;8.648;2023-11-22T06:23:08;101961.53;;;-0.43;100.00
72262;BME280;60173;52.112;8.648;2023-11-22T06:25:35;101949.34;;;-0.68;100.00
72262;BME280;60173;52.112;8.648;2023-11-22T06:28:02;101966.84;;;-0.80;100.00
72262;BME280;60173;52.112;8.648;2023-11-22T06:30:29;101972.34;;;-0.52;100.00
72262;BME280;60173;52.112;8.648;2023-11-22T06:32:55;101965.19;;;-0.30;100.00
72262;BME280;60173;52.112;8.648;2023-11-22T06:35:22;101958.06;;;-0.59;100.00
72262;BME280;60173;52.112;8.648;2023-11-22T06:37:49;101950.59;;;-0.49;100.00
72262;BME280;60173;52.112;8.648;2023-11-22T06:40:15;101947.81;;;-0.77;100.00
72262;BME280;60173;52.112;8.648;2023-11-22T06:42:42;101950.28;;;-0.90;100.00
72262;BME280;60173;52.112;8.648;2023-11-22T06:45:09;101948.34;;;-0.81;100.00
72262;BME280;60173;52.112;8.648;2023-11-22T06:47:36;101945.50;;;-0.80;100.00
72262;BME280;60173;52.112;8.648;2023-11-22T06:50:03;101939.25;;;-0.87;100.00
72262;BME280;60173;52.112;8.648;2023-11-22T06:52:30;101939.63;;;-0.75;100.00
72262;BME280;60173;52.112;8.648;2023-11-22T06:54:56;101942.28;;;-0.75;100.00
72262;BME280;60173;52.112;8.648;2023-11-22T06:57:22;101940.81;;;-0.78;100.00
72262;BME280;60173;52.112;8.648;2023-11-22T06:59:49;101937.69;;;-0.81;100.00
72262;BME280;60173;52.112;8.648;2023-11-22T07:02:15;101936.22;;;-0.69;100.00
72262;BME280;60173;52.112;8.648;2023-11-22T07:04:42;101937.31;;;-0.78;100.00
72262;BME280;60173;52.112;8.648;2023-11-22T07:07:08;101945.69;;;-0.66;100.00
72262;BME280;60173;52.112;8.648;2023-11-22T07:09:35;101946.34;;;-0.79;100.00
72262;BME280;60173;52.112;8.648;2023-11-22T07:12:01;101940.03;;;-0.57;100.00
72262;BME280;60173;52.112;8.648;2023-11-22T07:14:27;101946.66;;;-0.53;100.00
72262;BME280;60173;52.112;8.648;2023-11-22T07:16:54;101950.50;;;-0.40;100.00
72262;BME280;60173;52.112;8.648;2023-11-22T07:19:20;101961.69;;;-0.30;100.00
72262;BME280;60173;52.112;8.648;2023-11-22T07:21:47;101965.50;;;-0.39;100.00
72262;BME280;60173;52.112;8.648;2023-11-22T07:24:13;101964.09;;;-0.35;100.00
72262;BME280;60173;52.112;8.648;2023-11-22T07:26:40;101966.13;;;-0.37;100.00
72262;BME280;60173;52.112;8.648;2023-11-22T07:29:06;101966.84;;;-0.29;100.00
72262;BME280;60173;52.112;8.648;2023-11-22T07:31:33;101970.94;;;-0.48;100.00
72262;BME280;60173;52.112;8.648;2023-11-22T07:33:59;101964.34;;;-0.52;100.00
72262;BME280;60173;52.112;8.648;2023-11-22T07:36:25;101957.53;;;-0.33;100.00
72262;BME280;60173;52.112;8.648;2023-11-22T07:38:52;101956.50;;;-0.17;100.00
72262;BME280;60173;52.112;8.648;2023-11-22T07:41:18;101969.78;;;-0.02;100.00
72262;BME280;60173;52.112;8.648;2023-11-22T07:43:45;101979.25;;;0.01;100.00
72262;BME280;60173;52.112;8.648;2023-11-22T07:46:11;101970.59;;;-0.02;100.00
72262;BME280;60173;52.112;8.648;2023-11-22T07:48:39;101969.91;;;-0.10;100.00
72262;BME280;60173;52.112;8.648;2023-11-22T07:51:05;101974.94;;;0.21;100.00
72262;BME280;60173;52.112;8.648;2023-11-22T07:53:32;101972.47;;;0.48;100.00
72262;BME280;60173;52.112;8.648;2023-11-22T07:55:58;101977.28;;;0.59;99.88
72262;BME280;60173;52.112;8.648;2023-11-22T07:58:25;101988.47;;;0.69;99.37
72262;BME280;60173;52.112;8.648;2023-11-22T08:00:51;102002.72;;;0.76;98.43
72262;BME280;60173;52.112;8.648;2023-11-22T08:03:17;101996.38;;;0.84;98.03
72262;BME280;60173;52.112;8.648;2023-11-22T08:05:44;102003.56;;;0.83;98.25
72262;BME280;60173;52.112;8.648;2023-11-22T08:08:11;102001.41;;;0.94;98.45
72262;BME280;60173;52.112;8.648;2023-11-22T08:10:37;101996.06;;;1.00;98.44
72262;BME280;60173;52.112;8.648;2023-11-22T08:13:04;101998.59;;;1.08;97.94
72262;BME280;60173;52.112;8.648;2023-11-22T08:15:30;102003.47;;;0.98;97.49
72262;BME280;60173;52.112;8.648;2023-11-22T08:17:58;102000.69;;;1.13;97.78
72262;BME280;60173;52.112;8.648;2023-11-22T08:20:24;101995.88;;;1.37;97.71
72262;BME280;60173;52.112;8.648;2023-11-22T08:22:51;101996.38;;;1.60;97.08
72262;BME280;60173;52.112;8.648;2023-11-22T08:25:18;102000.84;;;1.46;96.20
72262;BME280;60173;52.112;8.648;2023-11-22T08:27:44;101993.81;;;1.04;96.96
72262;BME280;60173;52.112;8.648;2023-11-22T08:30:11;101999.03;;;1.12;98.55
72262;BME280;60173;52.112;8.648;2023-11-22T08:32:37;102016.63;;;0.93;99.04
72262;BME280;60173;52.112;8.648;2023-11-22T08:35:04;102014.41;;;0.75;100.00
72262;BME280;60173;52.112;8.648;2023-11-22T08:37:30;102026.13;;;1.30;99.59
72262;BME280;60173;52.112;8.648;2023-11-22T08:39:57;102023.16;;;1.19;98.57
72262;BME280;60173;52.112;8.648;2023-11-22T08:42:23;102029.72;;;1.57;97.41
72262;BME280;60173;52.112;8.648;2023-11-22T08:44:50;102024.28;;;1.86;95.24
72262;BME280;60173;52.112;8.648;2023-11-22T08:47:16;102015.66;;;1.42;95.54
72262;BME280;60173;52.112;8.648;2023-11-22T08:49:43;102021.94;;;1.63;94.68
72262;BME280;60173;52.112;8.648;2023-11-22T08:52:10;102041.91;;;1.60;94.94
72262;BME280;60173;52.112;8.648;2023-11-22T08:54:36;102052.13;;;1.50;95.30
72262;BME280;60173;52.112;8.648;2023-11-22T08:57:03;102060.25;;;1.63;94.60
72262;BME280;60173;52.112;8.648;2023-11-22T08:59:29;102064.81;;;1.69;95.13
72262;BME280;60173;52.112;8.648;2023-11-22T09:01:56;102064.53;;;1.51;95.96
72262;BME280;60173;52.112;8.648;2023-11-22T09:04:22;102065.53;;;1.50;96.47
72262;BME280;60173;52.112;8.648;2023-11-22T09:06:49;102055.88;;;1.55;96.40
72262;BME280;60173;52.112;8.648;2023-11-22T09:09:15;102050.72;;;1.54;96.02
72262;BME280;60173;52.112;8.648;2023-11-22T09:11:42;102053.91;;;1.77;95.78
72262;BME280;60173;52.112;8.648;2023-11-22T09:14:08;102031.69;;;1.84;94.07
72262;BME280;60173;52.112;8.648;2023-11-22T09:16:36;102022.00;;;1.83;93.31
72262;BME280;60173;52.112;8.648;2023-11-22T09:19:03;102019.75;;;1.93;92.90
72262;BME280;60173;52.112;8.648;2023-11-22T09:21:29;102027.56;;;1.88;93.03
72262;BME280;60173;52.112;8.648;2023-11-22T09:23:56;102024.97;;;2.14;92.37
72262;BME280;60173;52.112;8.648;2023-11-22T09:26:22;102031.88;;;1.82;91.03
72262;BME280;60173;52.112;8.648;2023-11-22T09:28:49;102034.34;;;1.84;92.36
72262;BME280;60173;52.112;8.648;2023-11-22T09:31:15;102031.78;;;2.23;91.29
72262;BME280;60173;52.112;8.648;2023-11-22T09:33:41;102035.09;;;2.65;89.39
72262;BME280;60173;52.112;8.648;2023-11-22T09:36:08;102031.34;;;3.06;87.62
72262;BME280;60173;52.112;8.648;2023-11-22T09:38:37;102030.47;;;3.26;85.98
72262;BME280;60173;52.112;8.648;2023-11-22T09:41:03;102031.75;;;3.16;84.88
72262;BME280;60173;52.112;8.648;2023-11-22T09:43:30;102017.88;;;3.26;84.10
72262;BME280;60173;52.112;8.648;2023-11-22T09:45:57;102028.34;;;3.48;83.84
72262;BME280;60173;52.112;8.648;2023-11-22T09:48:25;102029.91;;;3.10;83.35
72262;BME280;60173;52.112;8.648;2023-11-22T09:53:40;102038.41;;;2.87;84.19
72262;BME280;60173;52.112;8.648;2023-11-22T09:56:09;102026.22;;;2.38;84.21
72262;BME280;60173;52.112;8.648;2023-11-22T09:58:40;102030.13;;;2.69;84.24
72262;BME280;60173;52.112;8.648;2023-11-22T10:01:07;102036.31;;;2.83;82.98
72262;BME280;60173;52.112;8.648;2023-11-22T10:03:34;102031.16;;;2.94;81.57
72262;BME280;60173;52.112;8.648;2023-11-22T10:06:01;102028.31;;;2.69;79.17
72262;BME280;60173;52.112;8.648;2023-11-22T10:08:27;102025.16;;;2.99;80.69
72262;BME280;60173;52.112;8.648;2023-11-22T10:10:54;102011.72;;;3.19;78.62
72262;BME280;60173;52.112;8.648;2023-11-22T10:13:21;102007.94;;;3.27;80.14
72262;BME280;60173;52.112;8.648;2023-11-22T10:15:48;102006.38;;;2.99;79.64
72262;BME280;60173;52.112;8.648;2023-11-22T10:18:14;102006.81;;;2.89;80.09
72262;BME280;60173;52.112;8.648;2023-11-22T10:20:42;102010.53;;;2.68;78.95
72262;BME280;60173;52.112;8.648;2023-11-22T10:23:12;102020.00;;;2.91;80.62
72262;BME280;60173;52.112;8.648;2023-11-22T10:25:45;102009.63;;;3.28;77.69
72262;BME280;60173;52.112;8.648;2023-11-22T10:28:12;102025.13;;;3.12;76.11
72262;BME280;60173;52.112;8.648;2023-11-22T10:30:39;102015.06;;;2.94;76.55
72262;BME280;60173;52.112;8.648;2023-11-22T10:33:06;102025.53;;;3.09;77.42
72262;BME280;60173;52.112;8.648;2023-11-22T10:35:32;102026.38;;;3.16;77.06
72262;BME280;60173;52.112;8.648;2023-11-22T10:37:59;102020.22;;;3.68;75.33
72262;BME280;60173;52.112;8.648;2023-11-22T10:40:28;102013.75;;;3.75;76.56
72262;BME280;60173;52.112;8.648;2023-11-22T10:42:56;102009.13;;;3.44;77.63
72262;BME280;60173;52.112;8.648;2023-11-22T10:45:23;102008.56;;;3.29;78.12
72262;BME280;60173;52.112;8.648;2023-11-22T10:47:52;102000.91;;;3.32;77.71
72262;BME280;60173;52.112;8.648;2023-11-22T10:50:18;101997.78;;;3.87;76.23
72262;BME280;60173;52.112;8.648;2023-11-22T10:52:47;102010.53;;;3.98;74.32
72262;BME280;60173;52.112;8.648;2023-11-22T10:55:15;102005.66;;;4.14;72.71
72262;BME280;60173;52.112;8.648;2023-11-22T10:57:46;102002.91;;;4.27;72.88
72262;BME280;60173;52.112;8.648;2023-11-22T11:00:14;102010.06;;;4.40;72.74
72262;BME280;60173;52.112;8.648;2023-11-22T11:02:45;102010.88;;;4.40;71.69
72262;BME280;60173;52.112;8.648;2023-11-22T11:05:17;101989.03;;;4.55;71.92
72262;BME280;60173;52.112;8.648;2023-11-22T11:07:49;101994.50;;;4.92;71.23
72262;BME280;60173;52.112;8.648;2023-11-22T11:10:17;101994.53;;;4.85;70.59
72262;BME280;60173;52.112;8.648;2023-11-22T11:12:50;101990.94;;;4.73;69.63
72262;BME280;60173;52.112;8.648;2023-11-22T11:15:17;101988.84;;;4.75;69.50
72262;BME280;60173;52.112;8.648;2023-11-22T11:17:44;101981.06;;;4.85;68.65
72262;BME280;60173;52.112;8.648;2023-11-22T11:20:11;101993.97;;;5.02;68.69
72262;BME280;60173;52.112;8.648;2023-11-22T11:22:38;101984.25;;;5.01;68.17
72262;BME280;60173;52.112;8.648;2023-11-22T11:25:05;101959.69;;;5.09;68.08
72262;BME280;60173;52.112;8.648;2023-11-22T11:27:35;101974.19;;;5.26;69.18
72262;BME280;60173;52.112;8.648;2023-11-22T11:30:40;101979.59;;;5.26;70.16
72262;BME280;60173;52.112;8.648;2023-11-22T11:33:07;101967.13;;;5.13;71.32
72262;BME280;60173;52.112;8.648;2023-11-22T11:35:41;101968.22;;;5.06;71.29
72262;BME280;60173;52.112;8.648;2023-11-22T11:38:08;101958.19;;;4.94;68.67
72262;BME280;60173;52.112;8.648;2023-11-22T11:40:35;101946.16;;;4.97;69.71
72262;BME280;60173;52.112;8.648;2023-11-22T11:43:02;101951.09;;;5.00;68.90
72262;BME280;60173;52.112;8.648;2023-11-22T11:45:28;101957.44;;;5.06;69.07
72262;BME280;60173;52.112;8.648;2023-11-22T11:47:55;101954.19;;;5.04;68.06
72262;BME280;60173;52.112;8.648;2023-11-22T11:50:21;101945.78;;;5.30;74.80
72262;BME280;60173;52.112;8.648;2023-11-22T11:52:48;101928.97;;;5.47;71.65
72262;BME280;60173;52.112;8.648;2023-11-22T11:55:14;101918.69;;;5.55;74.77
72262;BME280;60173;52.112;8.648;2023-11-22T11:57:41;101901.88;;;5.72;80.11
72262;BME280;60173;52.112;8.648;2023-11-22T12:00:08;101901.69;;;5.85;74.46
72262;BME280;60173;52.112;8.648;2023-11-22T12:02:35;101883.75;;;5.79;68.00
72262;BME280;60173;52.112;8.648;2023-11-22T12:05:01;101858.34;;;5.98;68.42
72262;BME280;60173;52.112;8.648;2023-11-22T12:07:28;101838.94;;;5.78;63.46
72262;BME280;60173;52.112;8.648;2023-11-22T12:09:54;101828.84;;;5.50;63.15
72262;BME280;60173;52.112;8.648;2023-11-22T12:12:21;101828.75;;;5.26;62.90
72262;BME280;60173;52.112;8.648;2023-11-22T12:14:47;101839.81;;;5.36;60.54
72262;BME280;60173;52.112;8.648;2023-11-22T12:17:14;101829.19;;;5.23;61.81
72262;BME280;60173;52.112;8.648;2023-11-22T12:19:40;101817.44;;;5.36;62.08
72262;BME280;60173;52.112;8.648;2023-11-22T12:22:07;101816.50;;;5.42;61.76
72262;BME280;60173;52.112;8.648;2023-11-22T12:24:34;101823.31;;;5.44;60.95
72262;BME280;60173;52.112;8.648;2023-11-22T12:27:01;101820.91;;;5.25;60.97
72262;BME280;60173;52.112;8.648;2023-11-22T12:29:27;101821.44;;;5.15;60.93
72262;BME280;60173;52.112;8.648;2023-11-22T12:31:54;101809.16;;;5.19;61.39
72262;BME280;60173;52.112;8.648;2023-11-22T12:34:22;101804.50;;;5.26;61.08
72262;BME280;60173;52.112;8.648;2023-11-22T12:36:49;101790.22;;;4.95;60.91
72262;BME280;60173;52.112;8.648;2023-11-22T12:39:15;101779.47;;;4.95;60.67
72262;BME280;60173;52.112;8.648;2023-11-22T12:41:51;101783.19;;;4.94;60.82
72262;BME280;60173;52.112;8.648;2023-11-22T12:44:31;101775.25;;;4.99;61.53
72262;BME280;60173;52.112;8.648;2023-11-22T12:46:59;101768.59;;;5.02;62.66
72262;BME280;60173;52.112;8.648;2023-11-22T12:49:27;101773.22;;;5.25;63.69
72262;BME280;60173;52.112;8.648;2023-11-22T12:51:55;101778.56;;;5.02;67.06
72262;BME280;60173;52.112;8.648;2023-11-22T12:54:22;101779.63;;;4.82;67.45